createdAt,value
2023-04-25T00:02:45.974Z,42.81
2023-04-25T00:07:48.254Z,42.77
2023-04-25T00:12:50.703Z,42.87
2023-04-25T00:17:54.330Z,43.01
2023-04-25T00:22:57.268Z,43.07
2023-04-25T00:27:59.475Z,42.95
2023-04-25T00:33:01.787Z,43.09
2023-04-25T00:38:04.031Z,44.89
2023-04-25T00:43:06.924Z,45.19
2023-04-25T00:48:09.195Z,44.79
2023-04-25T00:53:11.450Z,43.70
2023-04-25T00:58:13.979Z,43.33
2023-04-25T01:03:23.293Z,42.92
2023-04-25T01:08:26.887Z,42.77
2023-04-25T01:13:29.228Z,42.58
2023-04-25T01:18:31.461Z,42.54
2023-04-25T01:23:34.651Z,42.79
2023-04-25T01:28:37.426Z,43.04
2023-04-25T01:33:39.756Z,43.24
2023-04-25T01:38:42.640Z,43.71
2023-04-25T01:43:45.182Z,43.73
2023-04-25T01:48:47.565Z,43.59
2023-04-25T01:53:50.457Z,43.71
2023-04-25T01:58:53.038Z,43.85
2023-04-25T02:03:55.724Z,43.86
2023-04-25T02:08:58.380Z,43.71
2023-04-25T02:14:01.311Z,43.78
2023-04-25T02:19:03.927Z,43.95
2023-04-25T02:24:06.646Z,44.15
2023-04-25T02:29:08.851Z,44.17
2023-04-25T02:34:11.192Z,43.85
2023-04-25T02:39:13.376Z,44.48
2023-04-25T02:44:15.563Z,44.83
2023-04-25T02:49:17.817Z,44.84
2023-04-25T02:54:20.081Z,44.72
2023-04-25T02:59:22.430Z,44.84
2023-04-25T03:04:25.294Z,45.14
2023-04-25T03:09:27.494Z,45.45
2023-04-25T03:14:29.747Z,46.47
2023-04-25T03:19:32.063Z,45.93
2023-04-25T03:24:34.252Z,46.15
2023-04-25T03:29:36.951Z,46.74
2023-04-25T03:34:39.309Z,46.89
2023-04-25T03:39:41.602Z,46.28
2023-04-25T03:44:43.866Z,46.76
2023-04-25T03:49:46.149Z,47.44
2023-04-25T03:54:48.445Z,48.48
2023-04-25T03:59:50.605Z,48.25
2023-04-25T04:04:52.901Z,47.38
2023-04-25T04:09:55.360Z,47.50
2023-04-25T04:14:57.486Z,47.33
2023-04-25T04:19:59.809Z,47.61
2023-04-25T04:25:02.012Z,47.32
2023-04-25T04:30:04.709Z,47.00
2023-04-25T04:35:07.720Z,46.77
2023-04-25T04:40:10.842Z,46.46
2023-04-25T04:45:13.733Z,46.84
2023-04-25T04:50:16.365Z,47.02
2023-04-25T04:55:18.487Z,46.40
2023-04-25T05:00:22.130Z,45.83
2023-04-25T05:05:24.280Z,45.60
2023-04-25T05:10:27.780Z,45.75
2023-04-25T05:15:29.965Z,45.68
2023-04-25T05:20:32.241Z,45.32
2023-04-25T05:25:34.688Z,44.79
2023-04-25T05:30:36.832Z,44.42
2023-04-25T05:35:39.030Z,44.01
2023-04-25T05:40:41.224Z,44.32
2023-04-25T05:45:43.570Z,43.92
2023-04-25T05:50:45.816Z,44.08
2023-04-25T05:55:48.676Z,44.29
2023-04-25T06:00:51.600Z,45.04
2023-04-25T06:05:53.909Z,44.48
2023-04-25T06:10:56.085Z,44.08
2023-04-25T06:15:58.291Z,43.21
2023-04-25T06:21:00.413Z,42.55
2023-04-25T06:26:02.493Z,42.35
2023-04-25T06:31:04.651Z,42.26
2023-04-25T06:36:07.051Z,42.10
2023-04-25T06:41:09.254Z,41.90
2023-04-25T06:46:12.344Z,41.81
2023-04-25T06:51:17.455Z,41.85
2023-04-25T06:56:19.742Z,41.30
2023-04-25T07:01:21.927Z,40.57
2023-04-25T07:06:24.228Z,40.37
2023-04-25T07:11:26.385Z,40.40
2023-04-25T07:16:28.960Z,40.04
2023-04-25T07:21:32.785Z,39.74
2023-04-25T07:26:35.125Z,39.67
2023-04-25T07:31:37.502Z,40.06
2023-04-25T07:36:39.739Z,40.43
2023-04-25T07:41:41.969Z,40.40
2023-04-25T07:46:44.190Z,39.94
2023-04-25T07:51:46.474Z,39.42
2023-04-25T07:56:52.795Z,39.22
2023-04-25T08:01:55.808Z,39.66
2023-04-25T08:06:58.039Z,39.65
2023-04-25T08:12:00.209Z,39.45
2023-04-25T08:17:02.921Z,39.64
2023-04-25T08:22:06.070Z,37.41
2023-04-25T08:27:09.156Z,37.81
2023-04-25T08:32:11.519Z,37.01
2023-04-25T08:37:13.824Z,36.18
2023-04-25T08:42:17.183Z,35.06
2023-04-25T08:47:24.183Z,35.50
2023-04-25T08:52:32.293Z,35.42
2023-04-25T08:57:35.207Z,34.97
2023-04-25T09:02:37.918Z,34.53
2023-04-25T09:07:40.280Z,33.64
2023-04-25T09:12:42.591Z,31.84
2023-04-25T09:17:45.846Z,30.29
2023-04-25T09:22:48.202Z,29.83
2023-04-25T09:27:57.495Z,30.00
2023-04-25T09:33:07.075Z,30.41
2023-04-25T09:38:13.761Z,30.52
2023-04-25T09:43:23.317Z,31.63
2023-04-25T09:48:27.234Z,30.77
2023-04-25T09:53:30.064Z,30.45
2023-04-25T09:58:33.337Z,30.30
2023-04-25T10:03:37.513Z,30.74
2023-04-25T10:08:40.847Z,29.57
2023-04-25T10:13:44.414Z,30.02
2023-04-25T10:18:46.608Z,30.07
2023-04-25T10:23:51.035Z,29.13
2023-04-25T10:29:03.466Z,29.04
2023-04-25T10:34:06.905Z,28.61
2023-04-25T10:39:10.427Z,28.66
2023-04-25T10:44:12.562Z,29.75
2023-04-25T10:49:52.318Z,30.04
2023-04-25T10:54:55.611Z,29.52
2023-04-25T11:00:02.575Z,29.20
2023-04-25T11:05:05.124Z,29.79
2023-04-25T11:10:07.925Z,29.95
2023-04-25T11:15:10.480Z,28.70
2023-04-25T11:20:12.920Z,29.87
2023-04-25T11:25:17.737Z,30.20
2023-04-25T11:30:21.394Z,28.97
2023-04-25T11:35:24.521Z,29.44
2023-04-25T11:40:26.872Z,28.88
2023-04-25T11:45:30.510Z,30.14
2023-04-25T11:50:33.411Z,29.41
2023-04-25T11:55:35.970Z,28.37
2023-04-25T12:00:38.397Z,28.91
2023-04-25T12:05:42.307Z,29.62
2023-04-25T12:10:47.296Z,31.27
2023-04-25T12:15:50.276Z,28.97
2023-04-25T12:20:54.274Z,30.17
2023-04-25T12:25:57.363Z,30.55
2023-04-25T12:31:05.734Z,30.16
2023-04-25T12:36:13.123Z,29.69
2023-04-25T12:41:15.327Z,30.77
2023-04-25T12:46:17.719Z,30.74
2023-04-25T12:51:19.955Z,30.77
2023-04-25T12:56:24.551Z,30.65
2023-04-25T13:01:28.142Z,30.45
2023-04-25T13:06:31.805Z,29.99
2023-04-25T13:11:34.055Z,31.82
2023-04-25T13:16:36.468Z,31.50
2023-04-25T13:21:38.820Z,29.94
2023-04-25T13:26:41.024Z,30.18
2023-04-25T13:31:44.014Z,30.80
2023-04-25T13:36:46.949Z,31.05
2023-04-25T13:41:49.182Z,31.03
2023-04-25T13:46:51.459Z,32.19
2023-04-25T13:51:53.762Z,32.18
2023-04-25T13:57:00.184Z,33.17
2023-04-25T14:02:02.822Z,32.59
2023-04-25T14:07:06.295Z,32.36
2023-04-25T14:12:08.639Z,32.52
2023-04-25T14:17:11.063Z,31.98
2023-04-25T14:22:13.354Z,31.07
2023-04-25T14:27:15.827Z,31.01
2023-04-25T14:32:18.129Z,31.62
2023-04-25T14:37:20.338Z,30.96
2023-04-25T14:42:22.539Z,30.46
2023-04-25T14:47:27.250Z,29.31
2023-04-25T14:52:30.102Z,29.49
2023-04-25T14:57:33.927Z,29.24
2023-04-25T15:02:36.606Z,29.34
2023-04-25T15:07:40.848Z,27.89
2023-04-25T15:12:47.680Z,26.29
2023-04-25T15:17:50.470Z,24.08
2023-04-25T15:22:52.699Z,24.10
2023-04-25T15:27:56.475Z,21.90
2023-04-25T15:32:58.891Z,21.76
2023-04-25T15:38:01.671Z,23.59
2023-04-25T15:43:04.251Z,26.61
2023-04-25T15:48:06.841Z,28.73
2023-04-25T15:53:09.042Z,29.79
2023-04-25T15:58:12.807Z,29.35
2023-04-25T16:03:15.811Z,25.82
2023-04-25T16:08:18.264Z,25.19
2023-04-25T16:13:20.461Z,23.02
2023-04-25T16:18:22.650Z,21.70
2023-04-25T16:23:24.937Z,21.90
2023-04-25T16:28:27.141Z,22.13
2023-04-25T16:33:29.485Z,26.23
2023-04-25T16:38:32.209Z,28.39
2023-04-25T16:43:34.857Z,28.71
2023-04-25T16:48:37.103Z,30.15
2023-04-25T16:53:39.294Z,30.06
2023-04-25T16:58:41.637Z,30.06
2023-04-25T17:03:44.537Z,30.50
2023-04-25T17:08:46.985Z,30.38
2023-04-25T17:13:49.275Z,30.95
2023-04-25T17:18:51.964Z,31.53
2023-04-25T17:23:54.620Z,31.90
2023-04-25T17:28:57.327Z,32.46
2023-04-25T17:33:59.629Z,32.97
2023-04-25T17:39:02.619Z,33.53
2023-04-25T17:44:05.035Z,33.85
2023-04-25T17:49:07.576Z,34.15
2023-04-25T17:54:09.873Z,32.97
2023-04-25T17:59:12.082Z,32.13
2023-04-25T18:04:14.673Z,32.43
2023-04-25T18:09:23.612Z,33.08
2023-04-25T18:14:26.465Z,32.94
2023-04-25T18:19:28.710Z,32.40
2023-04-25T18:24:30.922Z,32.64
2023-04-25T18:29:34.120Z,32.74
2023-04-25T18:34:36.629Z,33.00
2023-04-25T18:39:38.830Z,33.74
2023-04-25T18:44:41.472Z,34.46
2023-04-25T18:49:43.992Z,34.03
2023-04-25T18:54:46.432Z,33.76
2023-04-25T18:59:49.257Z,34.29
2023-04-25T19:04:51.442Z,33.88
2023-04-25T19:09:54.355Z,34.08
2023-04-25T19:14:57.064Z,34.03
2023-04-25T19:19:59.397Z,34.34
2023-04-25T19:25:10.053Z,34.12
2023-04-25T19:30:13.432Z,34.00
2023-04-25T19:35:16.118Z,33.97
2023-04-25T19:40:20.830Z,33.97
2023-04-25T19:45:23.108Z,35.04
2023-04-25T19:50:25.923Z,35.49
2023-04-25T19:55:29.056Z,35.69
2023-04-25T20:00:31.549Z,36.07
2023-04-25T20:05:33.778Z,35.07
2023-04-25T20:10:36.066Z,35.19
2023-04-25T20:15:38.582Z,35.40
2023-04-25T20:20:40.959Z,35.58
2023-04-25T20:25:43.971Z,36.76
2023-04-25T20:30:46.929Z,37.33
2023-04-25T20:35:49.701Z,37.43
2023-04-25T20:40:52.372Z,37.42
2023-04-25T20:45:55.263Z,37.85
2023-04-25T20:50:59.087Z,37.52
2023-04-25T20:56:01.367Z,37.24
2023-04-25T21:01:04.564Z,37.63
2023-04-25T21:06:06.918Z,37.18
2023-04-25T21:11:10.225Z,37.10
2023-04-25T21:16:12.560Z,37.13
2023-04-25T21:21:14.853Z,36.87
2023-04-25T21:26:17.019Z,36.58
2023-04-25T21:31:19.662Z,36.32
2023-04-25T21:36:22.513Z,36.68
2023-04-25T21:41:26.048Z,36.94
2023-04-25T21:46:28.330Z,36.90
2023-04-25T21:51:32.792Z,38.41
2023-04-25T21:56:34.997Z,37.70
2023-04-25T22:01:37.419Z,37.64
2023-04-25T22:06:39.702Z,38.09
2023-04-25T22:11:43.445Z,37.86
2023-04-25T22:16:46.531Z,38.62
2023-04-25T22:21:49.049Z,38.16
2023-04-25T22:26:51.674Z,37.90
2023-04-25T22:31:54.099Z,38.43
2023-04-25T22:36:56.476Z,39.32
2023-04-25T22:41:58.777Z,39.06
2023-04-25T22:47:01.855Z,38.56
2023-04-25T22:52:04.927Z,38.38
2023-04-25T22:57:08.569Z,37.87
2023-04-25T23:02:11.255Z,37.69
2023-04-25T23:07:14.022Z,37.58
2023-04-25T23:12:19.597Z,37.24
2023-04-25T23:17:21.871Z,37.11
2023-04-25T23:22:24.850Z,37.32
2023-04-25T23:27:27.266Z,37.00
2023-04-25T23:32:29.452Z,37.01
2023-04-25T23:37:38.566Z,37.50
2023-04-25T23:42:42.060Z,37.89
2023-04-25T23:47:44.476Z,37.88
2023-04-25T23:52:46.670Z,40.38
2023-04-25T23:57:49.165Z,40.20
